sensor_id;sensor_type;location;lat;lon;timestamp;P1;durP1;ratioP1;P2;durP2;ratioP2
18776;SDS011;9517;51.174;4.160;2024-03-17T00:00:25;16.93;;;9.10;;
18776;SDS011;9517;51.174;4.160;2024-03-17T00:02:59;18.03;;;8.83;;
18776;SDS011;9517;51.174;4.160;2024-03-17T00:05:25;19.33;;;8.97;;
18776;SDS011;9517;51.174;4.160;2024-03-17T00:07:54;17.47;;;7.93;;
18776;SDS011;9517;51.174;4.160;2024-03-17T00:10:24;15.57;;;7.60;;
18776;SDS011;9517;51.174;4.160;2024-03-17T00:12:51;17.30;;;7.17;;
18776;SDS011;9517;51.174;4.160;2024-03-17T00:15:17;18.70;;;7.97;;
18776;SDS011;9517;51.174;4.160;2024-03-17T00:17:44;16.33;;;7.97;;
18776;SDS011;9517;51.174;4.160;2024-03-17T00:20:10;16.97;;;7.43;;
18776;SDS011;9517;51.174;4.160;2024-03-17T00:22:44;19.60;;;7.50;;
18776;SDS011;9517;51.174;4.160;2024-03-17T00:25:12;16.03;;;7.27;;
18776;SDS011;9517;51.174;4.160;2024-03-17T00:27:39;18.73;;;6.80;;
18776;SDS011;9517;51.174;4.160;2024-03-17T00:30:08;15.77;;;6.70;;
18776;SDS011;9517;51.174;4.160;2024-03-17T00:32:38;14.83;;;6.83;;
18776;SDS011;9517;51.174;4.160;2024-03-17T00:35:04;14.63;;;6.77;;
18776;SDS011;9517;51.174;4.160;2024-03-17T00:37:32;14.73;;;6.57;;
18776;SDS011;9517;51.174;4.160;2024-03-17T00:40:00;14.10;;;6.63;;
18776;SDS011;9517;51.174;4.160;2024-03-17T00:42:28;15.97;;;6.37;;
18776;SDS011;9517;51.174;4.160;2024-03-17T00:44:55;14.70;;;6.50;;
18776;SDS011;9517;51.174;4.160;2024-03-17T00:47:21;15.20;;;6.37;;
18776;SDS011;9517;51.174;4.160;2024-03-17T00:49:48;13.97;;;6.30;;
18776;SDS011;9517;51.174;4.160;2024-03-17T00:52:15;18.20;;;6.43;;
18776;SDS011;9517;51.174;4.160;2024-03-17T00:54:42;16.87;;;6.00;;
18776;SDS011;9517;51.174;4.160;2024-03-17T00:57:09;14.50;;;6.13;;
18776;SDS011;9517;51.174;4.160;2024-03-17T00:59:37;15.63;;;6.43;;
18776;SDS011;9517;51.174;4.160;2024-03-17T01:02:03;14.37;;;6.17;;
18776;SDS011;9517;51.174;4.160;2024-03-17T01:04:31;15.83;;;6.43;;
18776;SDS011;9517;51.174;4.160;2024-03-17T01:06:59;16.80;;;6.83;;
18776;SDS011;9517;51.174;4.160;2024-03-17T01:09:26;14.27;;;6.17;;
18776;SDS011;9517;51.174;4.160;2024-03-17T01:11:52;16.17;;;6.73;;
18776;SDS011;9517;51.174;4.160;2024-03-17T01:14:19;15.43;;;6.33;;
18776;SDS011;9517;51.174;4.160;2024-03-17T01:16:46;17.73;;;6.43;;
18776;SDS011;9517;51.174;4.160;2024-03-17T01:19:13;13.60;;;6.13;;
18776;SDS011;9517;51.174;4.160;2024-03-17T01:21:39;16.77;;;6.47;;
18776;SDS011;9517;51.174;4.160;2024-03-17T01:24:07;13.67;;;5.87;;
18776;SDS011;9517;51.174;4.160;2024-03-17T01:26:33;15.23;;;6.20;;
18776;SDS011;9517;51.174;4.160;2024-03-17T01:29:00;14.17;;;6.60;;
18776;SDS011;9517;51.174;4.160;2024-03-17T01:31:27;18.20;;;7.13;;
18776;SDS011;9517;51.174;4.160;2024-03-17T01:33:56;16.80;;;7.40;;
18776;SDS011;9517;51.174;4.160;2024-03-17T01:36:22;14.67;;;6.50;;
18776;SDS011;9517;51.174;4.160;2024-03-17T01:38:49;15.87;;;6.77;;
18776;SDS011;9517;51.174;4.160;2024-03-17T01:41:15;14.93;;;6.77;;
18776;SDS011;9517;51.174;4.160;2024-03-17T01:43:43;15.47;;;6.77;;
18776;SDS011;9517;51.174;4.160;2024-03-17T01:46:09;15.00;;;6.93;;
18776;SDS011;9517;51.174;4.160;2024-03-17T01:48:39;15.73;;;6.43;;
18776;SDS011;9517;51.174;4.160;2024-03-17T01:51:07;15.63;;;6.43;;
18776;SDS011;9517;51.174;4.160;2024-03-17T01:53:37;18.43;;;7.23;;
18776;SDS011;9517;51.174;4.160;2024-03-17T01:56:04;16.50;;;7.90;;
18776;SDS011;9517;51.174;4.160;2024-03-17T01:58:34;17.87;;;8.20;;
18776;SDS011;9517;51.174;4.160;2024-03-17T02:01:00;15.00;;;7.60;;
18776;SDS011;9517;51.174;4.160;2024-03-17T02:03:29;17.63;;;7.00;;
18776;SDS011;9517;51.174;4.160;2024-03-17T02:05:55;15.57;;;7.13;;
18776;SDS011;9517;51.174;4.160;2024-03-17T02:08:24;18.03;;;7.90;;
18776;SDS011;9517;51.174;4.160;2024-03-17T02:10:52;17.80;;;7.40;;
18776;SDS011;9517;51.174;4.160;2024-03-17T02:13:19;15.73;;;7.23;;
18776;SDS011;9517;51.174;4.160;2024-03-17T02:15:46;17.73;;;7.30;;
18776;SDS011;9517;51.174;4.160;2024-03-17T02:18:13;15.97;;;7.07;;
18776;SDS011;9517;51.174;4.160;2024-03-17T02:20:39;19.77;;;7.13;;
18776;SDS011;9517;51.174;4.160;2024-03-17T02:23:25;16.87;;;7.37;;
18776;SDS011;9517;51.174;4.160;2024-03-17T02:25:52;19.57;;;6.97;;
18776;SDS011;9517;51.174;4.160;2024-03-17T02:28:19;13.80;;;6.63;;
18776;SDS011;9517;51.174;4.160;2024-03-17T02:30:45;18.70;;;8.13;;
18776;SDS011;9517;51.174;4.160;2024-03-17T02:33:12;14.87;;;7.07;;
18776;SDS011;9517;51.174;4.160;2024-03-17T02:35:39;19.73;;;7.20;;
18776;SDS011;9517;51.174;4.160;2024-03-17T02:38:05;15.40;;;6.83;;
18776;SDS011;9517;51.174;4.160;2024-03-17T02:40:35;15.80;;;6.53;;
18776;SDS011;9517;51.174;4.160;2024-03-17T02:43:01;16.33;;;7.10;;
18776;SDS011;9517;51.174;4.160;2024-03-17T02:45:28;16.57;;;7.70;;
18776;SDS011;9517;51.174;4.160;2024-03-17T02:47:55;17.00;;;7.20;;
18776;SDS011;9517;51.174;4.160;2024-03-17T02:50:22;15.70;;;7.50;;
18776;SDS011;9517;51.174;4.160;2024-03-17T02:52:49;14.77;;;6.87;;
18776;SDS011;9517;51.174;4.160;2024-03-17T02:55:16;15.83;;;6.37;;
18776;SDS011;9517;51.174;4.160;2024-03-17T02:57:45;17.13;;;6.73;;
18776;SDS011;9517;51.174;4.160;2024-03-17T03:00:12;15.47;;;7.43;;
18776;SDS011;9517;51.174;4.160;2024-03-17T03:02:40;18.53;;;6.87;;
18776;SDS011;9517;51.174;4.160;2024-03-17T03:05:07;15.30;;;7.17;;
18776;SDS011;9517;51.174;4.160;2024-03-17T03:07:34;18.90;;;7.10;;
18776;SDS011;9517;51.174;4.160;2024-03-17T03:10:01;17.47;;;7.10;;
18776;SDS011;9517;51.174;4.160;2024-03-17T03:12:29;17.70;;;8.00;;
18776;SDS011;9517;51.174;4.160;2024-03-17T03:14:58;17.23;;;7.30;;
18776;SDS011;9517;51.174;4.160;2024-03-17T03:17:25;14.97;;;7.33;;
18776;SDS011;9517;51.174;4.160;2024-03-17T03:19:52;16.07;;;8.00;;
18776;SDS011;9517;51.174;4.160;2024-03-17T03:22:20;18.17;;;7.37;;
18776;SDS011;9517;51.174;4.160;2024-03-17T03:24:47;14.60;;;7.47;;
18776;SDS011;9517;51.174;4.160;2024-03-17T03:27:18;18.63;;;7.50;;
18776;SDS011;9517;51.174;4.160;2024-03-17T03:29:45;17.13;;;7.77;;
18776;SDS011;9517;51.174;4.160;2024-03-17T03:32:13;15.53;;;7.60;;
18776;SDS011;9517;51.174;4.160;2024-03-17T03:34:40;17.10;;;7.70;;
18776;SDS011;9517;51.174;4.160;2024-03-17T03:37:08;17.83;;;8.53;;
18776;SDS011;9517;51.174;4.160;2024-03-17T03:39:36;17.30;;;7.83;;
18776;SDS011;9517;51.174;4.160;2024-03-17T03:42:03;17.03;;;7.70;;
18776;SDS011;9517;51.174;4.160;2024-03-17T03:44:30;16.00;;;7.50;;
18776;SDS011;9517;51.174;4.160;2024-03-17T03:46:58;16.07;;;8.53;;
18776;SDS011;9517;51.174;4.160;2024-03-17T03:49:27;18.27;;;8.30;;
18776;SDS011;9517;51.174;4.160;2024-03-17T03:51:55;18.07;;;7.43;;
18776;SDS011;9517;51.174;4.160;2024-03-17T03:54:22;15.83;;;7.43;;
18776;SDS011;9517;51.174;4.160;2024-03-17T03:56:50;20.17;;;7.67;;
18776;SDS011;9517;51.174;4.160;2024-03-17T03:59:17;19.07;;;7.80;;
18776;SDS011;9517;51.174;4.160;2024-03-17T04:01:44;14.17;;;7.80;;
18776;SDS011;9517;51.174;4.160;2024-03-17T04:04:13;14.93;;;7.73;;
18776;SDS011;9517;51.174;4.160;2024-03-17T04:06:41;18.13;;;7.90;;
18776;SDS011;9517;51.174;4.160;2024-03-17T04:09:08;15.70;;;7.33;;
18776;SDS011;9517;51.174;4.160;2024-03-17T04:11:36;20.50;;;7.97;;
18776;SDS011;9517;51.174;4.160;2024-03-17T04:14:03;17.10;;;8.00;;
18776;SDS011;9517;51.174;4.160;2024-03-17T04:16:31;15.83;;;8.13;;
18776;SDS011;9517;51.174;4.160;2024-03-17T04:18:58;18.43;;;8.07;;
18776;SDS011;9517;51.174;4.160;2024-03-17T04:21:25;16.83;;;8.23;;
18776;SDS011;9517;51.174;4.160;2024-03-17T04:23:54;16.97;;;8.63;;
18776;SDS011;9517;51.174;4.160;2024-03-17T04:26:21;19.67;;;8.57;;
18776;SDS011;9517;51.174;4.160;2024-03-17T04:28:48;19.67;;;8.50;;
18776;SDS011;9517;51.174;4.160;2024-03-17T04:31:15;16.17;;;7.90;;
18776;SDS011;9517;51.174;4.160;2024-03-17T04:33:42;17.87;;;8.27;;
18776;SDS011;9517;51.174;4.160;2024-03-17T04:36:10;17.87;;;8.63;;
18776;SDS011;9517;51.174;4.160;2024-03-17T04:38:38;20.73;;;8.93;;
18776;SDS011;9517;51.174;4.160;2024-03-17T04:41:07;15.97;;;8.43;;
18776;SDS011;9517;51.174;4.160;2024-03-17T04:43:35;20.50;;;8.27;;
18776;SDS011;9517;51.174;4.160;2024-03-17T04:46:02;17.67;;;8.87;;
18776;SDS011;9517;51.174;4.160;2024-03-17T04:48:32;17.50;;;8.23;;
18776;SDS011;9517;51.174;4.160;2024-03-17T04:50:59;19.50;;;9.03;;
18776;SDS011;9517;51.174;4.160;2024-03-17T04:53:26;19.00;;;8.73;;
18776;SDS011;9517;51.174;4.160;2024-03-17T04:56:00;17.97;;;9.07;;
18776;SDS011;9517;51.174;4.160;2024-03-17T04:58:31;19.70;;;8.63;;
18776;SDS011;9517;51.174;4.160;2024-03-17T05:01:02;16.17;;;7.90;;
18776;SDS011;9517;51.174;4.160;2024-03-17T05:07:00;19.23;;;9.07;;
18776;SDS011;9517;51.174;4.160;2024-03-17T05:09:27;20.77;;;8.73;;
18776;SDS011;9517;51.174;4.160;2024-03-17T05:11:54;20.30;;;9.27;;
18776;SDS011;9517;51.174;4.160;2024-03-17T05:14:22;21.53;;;9.13;;
18776;SDS011;9517;51.174;4.160;2024-03-17T05:16:51;20.43;;;9.73;;
18776;SDS011;9517;51.174;4.160;2024-03-17T05:19:18;18.97;;;9.10;;
18776;SDS011;9517;51.174;4.160;2024-03-17T05:21:45;19.33;;;9.40;;
18776;SDS011;9517;51.174;4.160;2024-03-17T05:24:12;19.07;;;9.40;;
18776;SDS011;9517;51.174;4.160;2024-03-17T05:26:40;16.90;;;9.13;;
18776;SDS011;9517;51.174;4.160;2024-03-17T05:29:07;19.90;;;8.67;;
18776;SDS011;9517;51.174;4.160;2024-03-17T05:31:35;21.27;;;9.20;;
18776;SDS011;9517;51.174;4.160;2024-03-17T05:34:04;21.67;;;9.40;;
18776;SDS011;9517;51.174;4.160;2024-03-17T05:36:32;18.73;;;8.93;;
18776;SDS011;9517;51.174;4.160;2024-03-17T05:39:00;18.37;;;8.47;;
18776;SDS011;9517;51.174;4.160;2024-03-17T05:41:27;20.57;;;9.30;;
18776;SDS011;9517;51.174;4.160;2024-03-17T05:43:54;15.53;;;8.53;;
18776;SDS011;9517;51.174;4.160;2024-03-17T05:46:23;20.87;;;8.60;;
18776;SDS011;9517;51.174;4.160;2024-03-17T05:48:54;18.97;;;8.27;;
18776;SDS011;9517;51.174;4.160;2024-03-17T05:51:21;21.30;;;8.70;;
18776;SDS011;9517;51.174;4.160;2024-03-17T05:53:50;16.27;;;8.53;;
18776;SDS011;9517;51.174;4.160;2024-03-17T05:56:17;17.50;;;9.13;;
18776;SDS011;9517;51.174;4.160;2024-03-17T05:58:48;17.50;;;8.60;;
18776;SDS011;9517;51.174;4.160;2024-03-17T06:01:15;16.93;;;8.47;;
18776;SDS011;9517;51.174;4.160;2024-03-17T06:03:44;20.03;;;8.33;;
18776;SDS011;9517;51.174;4.160;2024-03-17T06:06:13;17.27;;;8.40;;
18776;SDS011;9517;51.174;4.160;2024-03-17T06:08:40;16.63;;;8.40;;
18776;SDS011;9517;51.174;4.160;2024-03-17T06:11:08;20.00;;;8.10;;
18776;SDS011;9517;51.174;4.160;2024-03-17T06:13:37;15.90;;;7.50;;
18776;SDS011;9517;51.174;4.160;2024-03-17T06:16:04;15.63;;;7.57;;
18776;SDS011;9517;51.174;4.160;2024-03-17T06:18:32;17.60;;;7.40;;
18776;SDS011;9517;51.174;4.160;2024-03-17T06:20:59;18.37;;;7.90;;
18776;SDS011;9517;51.174;4.160;2024-03-17T06:23:28;18.00;;;8.43;;
18776;SDS011;9517;51.174;4.160;2024-03-17T06:25:55;18.37;;;7.83;;
18776;SDS011;9517;51.174;4.160;2024-03-17T06:28:22;20.03;;;7.37;;
18776;SDS011;9517;51.174;4.160;2024-03-17T06:30:54;17.50;;;8.30;;
18776;SDS011;9517;51.174;4.160;2024-03-17T06:33:24;17.97;;;7.80;;
18776;SDS011;9517;51.174;4.160;2024-03-17T06:35:53;21.67;;;8.50;;
18776;SDS011;9517;51.174;4.160;2024-03-17T06:38:21;19.87;;;8.10;;
18776;SDS011;9517;51.174;4.160;2024-03-17T06:40:50;17.53;;;7.53;;
18776;SDS011;9517;51.174;4.160;2024-03-17T06:43:18;16.67;;;8.10;;
18776;SDS011;9517;51.174;4.160;2024-03-17T06:45:53;20.13;;;7.87;;
18776;SDS011;9517;51.174;4.160;2024-03-17T06:48:22;17.47;;;8.27;;
18776;SDS011;9517;51.174;4.160;2024-03-17T06:50:49;17.10;;;7.40;;
18776;SDS011;9517;51.174;4.160;2024-03-17T06:53:17;16.50;;;7.80;;
18776;SDS011;9517;51.174;4.160;2024-03-17T06:55:53;16.53;;;7.97;;
18776;SDS011;9517;51.174;4.160;2024-03-17T06:58:21;17.43;;;8.07;;
18776;SDS011;9517;51.174;4.160;2024-03-17T07:00:52;19.40;;;7.50;;
18776;SDS011;9517;51.174;4.160;2024-03-17T07:03:20;17.70;;;8.20;;
18776;SDS011;9517;51.174;4.160;2024-03-17T07:05:55;19.40;;;7.93;;
18776;SDS011;9517;51.174;4.160;2024-03-17T07:08:23;18.90;;;7.43;;
18776;SDS011;9517;51.174;4.160;2024-03-17T07:11:01;18.50;;;7.47;;
18776;SDS011;9517;51.174;4.160;2024-03-17T07:13:33;16.47;;;7.30;;
18776;SDS011;9517;51.174;4.160;2024-03-17T07:16:02;17.87;;;7.10;;
18776;SDS011;9517;51.174;4.160;2024-03-17T07:18:31;15.27;;;6.90;;
18776;SDS011;9517;51.174;4.160;2024-03-17T07:47:56;17.00;;;7.80;;
18776;SDS011;9517;51.174;4.160;2024-03-17T07:50:29;16.23;;;8.07;;
18776;SDS011;9517;51.174;4.160;2024-03-17T07:53:00;15.07;;;7.37;;
18776;SDS011;9517;51.174;4.160;2024-03-17T07:55:28;16.20;;;7.17;;
18776;SDS011;9517;51.174;4.160;2024-03-17T07:57:56;17.00;;;6.40;;
18776;SDS011;9517;51.174;4.160;2024-03-17T08:00:23;15.77;;;6.80;;
18776;SDS011;9517;51.174;4.160;2024-03-17T08:02:49;17.63;;;6.50;;
18776;SDS011;9517;51.174;4.160;2024-03-17T08:05:20;18.00;;;6.33;;
18776;SDS011;9517;51.174;4.160;2024-03-17T08:07:49;17.23;;;6.90;;
18776;SDS011;9517;51.174;4.160;2024-03-17T08:10:19;17.43;;;6.47;;
18776;SDS011;9517;51.174;4.160;2024-03-17T08:12:47;16.70;;;6.27;;
18776;SDS011;9517;51.174;4.160;2024-03-17T08:15:14;14.37;;;5.80;;
18776;SDS011;9517;51.174;4.160;2024-03-17T08:17:41;20.07;;;5.87;;
18776;SDS011;9517;51.174;4.160;2024-03-17T08:20:09;14.60;;;5.80;;
18776;SDS011;9517;51.174;4.160;2024-03-17T08:22:38;13.43;;;6.17;;
18776;SDS011;9517;51.174;4.160;2024-03-17T08:25:05;15.63;;;5.80;;
18776;SDS011;9517;51.174;4.160;2024-03-17T08:27:34;12.87;;;5.50;;
18776;SDS011;9517;51.174;4.160;2024-03-17T08:30:01;16.07;;;5.60;;
18776;SDS011;9517;51.174;4.160;2024-03-17T08:32:28;12.40;;;5.23;;
18776;SDS011;9517;51.174;4.160;2024-03-17T08:34:56;14.97;;;5.07;;
18776;SDS011;9517;51.174;4.160;2024-03-17T08:37:23;11.30;;;5.03;;
18776;SDS011;9517;51.174;4.160;2024-03-17T08:39:52;16.70;;;5.40;;
18776;SDS011;9517;51.174;4.160;2024-03-17T08:42:20;14.67;;;5.20;;
18776;SDS011;9517;51.174;4.160;2024-03-17T08:44:46;13.70;;;5.97;;
18776;SDS011;9517;51.174;4.160;2024-03-17T08:47:13;11.43;;;4.80;;
18776;SDS011;9517;51.174;4.160;2024-03-17T08:49:40;12.70;;;4.57;;
18776;SDS011;9517;51.174;4.160;2024-03-17T08:52:07;12.23;;;5.00;;
18776;SDS011;9517;51.174;4.160;2024-03-17T09:05:37;14.27;;;5.27;;
18776;SDS011;9517;51.174;4.160;2024-03-17T09:08:05;14.77;;;5.73;;
18776;SDS011;9517;51.174;4.160;2024-03-17T09:10:43;16.57;;;5.90;;
18776;SDS011;9517;51.174;4.160;2024-03-17T09:13:48;14.37;;;5.47;;
18776;SDS011;9517;51.174;4.160;2024-03-17T09:16:38;13.63;;;5.80;;
18776;SDS011;9517;51.174;4.160;2024-03-17T09:19:10;18.17;;;6.30;;
18776;SDS011;9517;51.174;4.160;2024-03-17T09:34:41;18.90;;;7.97;;
18776;SDS011;9517;51.174;4.160;2024-03-17T09:37:08;17.87;;;7.60;;
18776;SDS011;9517;51.174;4.160;2024-03-17T09:39:35;18.77;;;7.07;;
18776;SDS011;9517;51.174;4.160;2024-03-17T09:55:24;20.67;;;8.57;;
18776;SDS011;9517;51.174;4.160;2024-03-17T09:57:53;18.30;;;8.57;;
18776;SDS011;9517;51.174;4.160;2024-03-17T10:00:20;15.20;;;7.40;;
18776;SDS011;9517;51.174;4.160;2024-03-17T10:02:48;17.77;;;7.93;;
18776;SDS011;9517;51.174;4.160;2024-03-17T10:05:18;21.57;;;7.60;;
18776;SDS011;9517;51.174;4.160;2024-03-17T10:07:47;16.63;;;8.27;;
18776;SDS011;9517;51.174;4.160;2024-03-17T10:10:15;20.07;;;8.47;;
18776;SDS011;9517;51.174;4.160;2024-03-17T10:12:45;17.43;;;7.07;;
18776;SDS011;9517;51.174;4.160;2024-03-17T10:15:16;14.07;;;6.77;;
18776;SDS011;9517;51.174;4.160;2024-03-17T10:17:44;16.73;;;6.53;;
18776;SDS011;9517;51.174;4.160;2024-03-17T10:20:12;18.37;;;6.83;;
18776;SDS011;9517;51.174;4.160;2024-03-17T10:25:28;16.67;;;6.30;;
18776;SDS011;9517;51.174;4.160;2024-03-17T10:27:58;16.30;;;6.57;;
18776;SDS011;9517;51.174;4.160;2024-03-17T10:30:27;15.93;;;6.23;;
18776;SDS011;9517;51.174;4.160;2024-03-17T10:32:56;15.33;;;5.93;;
18776;SDS011;9517;51.174;4.160;2024-03-17T10:35:29;16.33;;;5.83;;
18776;SDS011;9517;51.174;4.160;2024-03-17T10:37:58;13.83;;;5.70;;
18776;SDS011;9517;51.174;4.160;2024-03-17T10:40:27;14.07;;;5.83;;
18776;SDS011;9517;51.174;4.160;2024-03-17T10:42:56;15.60;;;6.43;;
18776;SDS011;9517;51.174;4.160;2024-03-17T10:45:26;19.13;;;5.63;;
18776;SDS011;9517;51.174;4.160;2024-03-17T10:47:56;18.10;;;5.53;;
18776;SDS011;9517;51.174;4.160;2024-03-17T10:50:28;19.27;;;6.03;;
18776;SDS011;9517;51.174;4.160;2024-03-17T10:53:01;14.63;;;5.20;;
18776;SDS011;9517;51.174;4.160;2024-03-17T10:55:31;16.90;;;5.80;;
18776;SDS011;9517;51.174;4.160;2024-03-17T10:58:03;14.10;;;5.60;;
18776;SDS011;9517;51.174;4.160;2024-03-17T11:00:37;17.77;;;5.87;;
18776;SDS011;9517;51.174;4.160;2024-03-17T11:03:19;17.00;;;5.53;;
18776;SDS011;9517;51.174;4.160;2024-03-17T11:05:59;17.40;;;5.47;;
18776;SDS011;9517;51.174;4.160;2024-03-17T11:08:34;16.20;;;5.87;;
18776;SDS011;9517;51.174;4.160;2024-03-17T11:11:43;18.17;;;6.23;;
18776;SDS011;9517;51.174;4.160;2024-03-17T11:17:17;16.67;;;5.73;;
18776;SDS011;9517;51.174;4.160;2024-03-17T11:48:38;12.60;;;4.07;;
18776;SDS011;9517;51.174;4.160;2024-03-17T11:51:12;16.33;;;4.77;;
18776;SDS011;9517;51.174;4.160;2024-03-17T11:53:45;11.83;;;4.23;;
18776;SDS011;9517;51.174;4.160;2024-03-17T11:56:24;13.20;;;3.90;;
18776;SDS011;9517;51.174;4.160;2024-03-17T11:59:03;10.97;;;3.57;;
18776;SDS011;9517;51.174;4.160;2024-03-17T12:01:36;12.73;;;3.77;;
18776;SDS011;9517;51.174;4.160;2024-03-17T12:04:07;13.50;;;3.70;;
18776;SDS011;9517;51.174;4.160;2024-03-17T12:06:51;14.50;;;3.80;;
18776;SDS011;9517;51.174;4.160;2024-03-17T12:09:43;11.80;;;3.10;;
18776;SDS011;9517;51.174;4.160;2024-03-17T12:16:11;11.40;;;3.70;;
18776;SDS011;9517;51.174;4.160;2024-03-17T12:19:18;12.37;;;3.20;;
18776;SDS011;9517;51.174;4.160;2024-03-17T12:46:10;13.50;;;2.73;;
18776;SDS011;9517;51.174;4.160;2024-03-17T13:19:33;9.20;;;1.80;;
18776;SDS011;9517;51.174;4.160;2024-03-17T13:29:13;7.63;;;1.50;;
18776;SDS011;9517;51.174;4.160;2024-03-17T13:32:15;9.87;;;1.50;;
18776;SDS011;9517;51.174;4.160;2024-03-17T13:45:10;7.67;;;1.67;;
18776;SDS011;9517;51.174;4.160;2024-03-17T13:48:08;10.50;;;2.20;;
18776;SDS011;9517;51.174;4.160;2024-03-17T13:51:06;7.30;;;1.70;;
18776;SDS011;9517;51.174;4.160;2024-03-17T13:53:47;12.23;;;1.93;;
18776;SDS011;9517;51.174;4.160;2024-03-17T13:56:30;8.70;;;1.77;;
18776;SDS011;9517;51.174;4.160;2024-03-17T13:59:34;12.00;;;2.00;;
18776;SDS011;9517;51.174;4.160;2024-03-17T15:57:24;12.93;;;2.93;;
18776;SDS011;9517;51.174;4.160;2024-03-17T15:59:59;10.80;;;2.70;;
18776;SDS011;9517;51.174;4.160;2024-03-17T16:02:44;7.70;;;2.13;;
18776;SDS011;9517;51.174;4.160;2024-03-17T16:05:25;11.37;;;2.53;;
18776;SDS011;9517;51.174;4.160;2024-03-17T16:08:10;9.60;;;1.97;;
18776;SDS011;9517;51.174;4.160;2024-03-17T16:10:56;9.37;;;2.50;;
18776;SDS011;9517;51.174;4.160;2024-03-17T16:13:40;13.03;;;2.10;;
18776;SDS011;9517;51.174;4.160;2024-03-17T16:16:10;9.57;;;1.80;;
18776;SDS011;9517;51.174;4.160;2024-03-17T16:18:43;11.53;;;2.00;;
18776;SDS011;9517;51.174;4.160;2024-03-17T16:21:18;9.43;;;2.53;;
18776;SDS011;9517;51.174;4.160;2024-03-17T16:23:48;12.57;;;2.23;;
18776;SDS011;9517;51.174;4.160;2024-03-17T16:26:21;11.80;;;2.00;;
18776;SDS011;9517;51.174;4.160;2024-03-17T16:28:52;9.60;;;2.00;;
18776;SDS011;9517;51.174;4.160;2024-03-17T16:31:22;9.80;;;1.87;;
18776;SDS011;9517;51.174;4.160;2024-03-17T16:33:53;8.77;;;1.60;;
18776;SDS011;9517;51.174;4.160;2024-03-17T16:36:25;7.40;;;1.67;;
18776;SDS011;9517;51.174;4.160;2024-03-17T16:38:53;9.97;;;2.10;;
18776;SDS011;9517;51.174;4.160;2024-03-17T16:41:21;7.93;;;1.90;;
18776;SDS011;9517;51.174;4.160;2024-03-17T16:43:53;9.80;;;2.03;;
18776;SDS011;9517;51.174;4.160;2024-03-17T16:46:29;6.73;;;2.13;;
18776;SDS011;9517;51.174;4.160;2024-03-17T16:49:25;11.20;;;2.13;;
18776;SDS011;9517;51.174;4.160;2024-03-17T16:52:18;8.00;;;1.80;;
18776;SDS011;9517;51.174;4.160;2024-03-17T16:54:45;14.23;;;2.83;;
18776;SDS011;9517;51.174;4.160;2024-03-17T16:57:14;10.70;;;2.43;;
18776;SDS011;9517;51.174;4.160;2024-03-17T16:59:43;16.40;;;2.43;;
18776;SDS011;9517;51.174;4.160;2024-03-17T17:02:18;13.43;;;2.53;;
18776;SDS011;9517;51.174;4.160;2024-03-17T17:04:51;12.63;;;3.00;;
18776;SDS011;9517;51.174;4.160;2024-03-17T17:11:15;9.87;;;2.67;;
18776;SDS011;9517;51.174;4.160;2024-03-17T17:28:21;18.63;;;4.00;;
18776;SDS011;9517;51.174;4.160;2024-03-17T17:40:31;10.30;;;3.70;;
18776;SDS011;9517;51.174;4.160;2024-03-17T17:46:26;12.73;;;3.47;;
18776;SDS011;9517;51.174;4.160;2024-03-17T17:48:56;10.83;;;4.13;;
18776;SDS011;9517;51.174;4.160;2024-03-17T17:51:27;10.17;;;3.70;;
18776;SDS011;9517;51.174;4.160;2024-03-17T17:53:54;9.33;;;3.57;;
18776;SDS011;9517;51.174;4.160;2024-03-17T17:56:26;10.47;;;3.30;;
18776;SDS011;9517;51.174;4.160;2024-03-17T17:59:06;16.23;;;3.97;;
18776;SDS011;9517;51.174;4.160;2024-03-17T18:01:38;13.10;;;3.93;;
18776;SDS011;9517;51.174;4.160;2024-03-17T18:04:08;12.37;;;4.23;;
18776;SDS011;9517;51.174;4.160;2024-03-17T18:06:35;17.57;;;5.10;;
18776;SDS011;9517;51.174;4.160;2024-03-17T18:09:03;12.27;;;4.90;;
18776;SDS011;9517;51.174;4.160;2024-03-17T18:11:37;14.07;;;5.23;;
18776;SDS011;9517;51.174;4.160;2024-03-17T18:50:23;14.23;;;6.00;;
18776;SDS011;9517;51.174;4.160;2024-03-17T18:53:25;15.90;;;5.87;;
18776;SDS011;9517;51.174;4.160;2024-03-17T18:56:09;12.23;;;5.90;;
18776;SDS011;9517;51.174;4.160;2024-03-17T18:58:52;15.37;;;6.60;;
18776;SDS011;9517;51.174;4.160;2024-03-17T19:15:36;15.27;;;7.13;;
18776;SDS011;9517;51.174;4.160;2024-03-17T19:18:21;18.43;;;7.93;;
18776;SDS011;9517;51.174;4.160;2024-03-17T19:20:49;16.73;;;8.03;;
18776;SDS011;9517;51.174;4.160;2024-03-17T19:23:33;15.93;;;8.27;;
18776;SDS011;9517;51.174;4.160;2024-03-17T19:53:40;20.17;;;9.77;;
18776;SDS011;9517;51.174;4.160;2024-03-17T19:56:09;16.60;;;10.03;;
18776;SDS011;9517;51.174;4.160;2024-03-17T19:58:38;23.17;;;10.70;;
18776;SDS011;9517;51.174;4.160;2024-03-17T20:01:09;20.90;;;11.37;;
18776;SDS011;9517;51.174;4.160;2024-03-17T20:03:37;20.93;;;12.13;;
18776;SDS011;9517;51.174;4.160;2024-03-17T20:06:05;22.33;;;13.33;;
18776;SDS011;9517;51.174;4.160;2024-03-17T20:08:35;21.30;;;12.87;;
18776;SDS011;9517;51.174;4.160;2024-03-17T20:11:02;19.23;;;13.10;;
18776;SDS011;9517;51.174;4.160;2024-03-17T20:13:29;24.43;;;13.87;;
18776;SDS011;9517;51.174;4.160;2024-03-17T20:15:56;20.50;;;12.97;;
18776;SDS011;9517;51.174;4.160;2024-03-17T20:18:23;24.47;;;13.60;;
18776;SDS011;9517;51.174;4.160;2024-03-17T20:20:51;22.90;;;14.77;;
18776;SDS011;9517;51.174;4.160;2024-03-17T20:23:19;25.67;;;15.60;;
18776;SDS011;9517;51.174;4.160;2024-03-17T20:25:47;21.27;;;13.67;;
18776;SDS011;9517;51.174;4.160;2024-03-17T20:28:14;24.23;;;13.90;;
18776;SDS011;9517;51.174;4.160;2024-03-17T20:30:42;24.57;;;15.10;;
18776;SDS011;9517;51.174;4.160;2024-03-17T20:33:10;23.37;;;15.10;;
18776;SDS011;9517;51.174;4.160;2024-03-17T20:35:37;22.37;;;13.47;;
18776;SDS011;9517;51.174;4.160;2024-03-17T20:38:05;18.93;;;12.13;;
18776;SDS011;9517;51.174;4.160;2024-03-17T20:40:32;22.00;;;12.87;;
18776;SDS011;9517;51.174;4.160;2024-03-17T20:43:01;22.23;;;13.67;;
18776;SDS011;9517;51.174;4.160;2024-03-17T20:45:28;18.30;;;11.77;;
18776;SDS011;9517;51.174;4.160;2024-03-17T20:47:55;20.03;;;12.77;;
18776;SDS011;9517;51.174;4.160;2024-03-17T20:50:23;17.93;;;11.73;;
18776;SDS011;9517;51.174;4.160;2024-03-17T20:52:51;21.07;;;12.70;;
18776;SDS011;9517;51.174;4.160;2024-03-17T20:55:18;20.60;;;13.40;;
18776;SDS011;9517;51.174;4.160;2024-03-17T20:57:45;24.03;;;14.00;;
18776;SDS011;9517;51.174;4.160;2024-03-17T21:00:17;22.67;;;13.10;;
18776;SDS011;9517;51.174;4.160;2024-03-17T21:02:46;22.13;;;12.77;;
18776;SDS011;9517;51.174;4.160;2024-03-17T21:05:14;20.47;;;12.67;;
18776;SDS011;9517;51.174;4.160;2024-03-17T21:07:42;23.47;;;13.33;;
18776;SDS011;9517;51.174;4.160;2024-03-17T21:10:09;22.30;;;12.90;;
18776;SDS011;9517;51.174;4.160;2024-03-17T21:12:37;22.73;;;12.73;;
18776;SDS011;9517;51.174;4.160;2024-03-17T21:15:05;24.93;;;12.77;;
18776;SDS011;9517;51.174;4.160;2024-03-17T21:17:36;22.20;;;13.23;;
18776;SDS011;9517;51.174;4.160;2024-03-17T21:20:03;20.57;;;12.10;;
18776;SDS011;9517;51.174;4.160;2024-03-17T21:22:33;22.10;;;12.77;;
18776;SDS011;9517;51.174;4.160;2024-03-17T21:25:00;21.03;;;12.53;;
18776;SDS011;9517;51.174;4.160;2024-03-17T21:27:31;22.17;;;12.83;;
18776;SDS011;9517;51.174;4.160;2024-03-17T21:29:59;20.17;;;12.63;;
18776;SDS011;9517;51.174;4.160;2024-03-17T21:32:28;22.30;;;12.73;;
18776;SDS011;9517;51.174;4.160;2024-03-17T21:34:56;22.10;;;13.77;;
18776;SDS011;9517;51.174;4.160;2024-03-17T21:37:24;24.37;;;13.57;;
18776;SDS011;9517;51.174;4.160;2024-03-17T21:40:11;22.50;;;14.17;;
18776;SDS011;9517;51.174;4.160;2024-03-17T21:42:41;24.70;;;15.27;;
18776;SDS011;9517;51.174;4.160;2024-03-17T21:45:09;27.40;;;16.03;;
18776;SDS011;9517;51.174;4.160;2024-03-17T21:47:38;27.23;;;15.23;;
18776;SDS011;9517;51.174;4.160;2024-03-17T21:50:09;25.13;;;14.93;;